Local Weather Ingen bokad jour idag Wednesday 21st of February
Flygplats METAR TAF
Airport METAR TAF
ESSL - Linköping210650Z 35002KT 7000 -SN FEW006 SCT016 BKN023 M07/M08 Q1026 RWY 29 DAMP 51-100 PCT BA GOOD= AAE 210625Z 2106/2115 VRB02KT 9999 BKN035 TEMPO 2106/2108 2000 -SN BKN005 RMK MIL=
ESSP - Norrköping210650Z 00000KT 5000 SN OVC046 M05/M06 Q1026= 210530Z 2106/2115 VRB02KT 9999 BKN040=
ESGJ - Jönköping210650Z 26003KT 5000 -SN OVC007 M04/M04 Q1024 RWY 01 ICE 51-100 PCT LESS THAN 1 MM FCT 0.59= 210530Z 2106/2115 VRB02KT 8000 -SN BKN030 TEMPO 2106/2108 2500 BKN008 PROB40 2108/2111 BKN013=
ESKN - Skavsta210650Z 30001KT 9999 BKN043 M07/M08 Q1026 RWY 26 DAMP 51-100 PCT BA GOOD= 210530Z 2106/2206 36003KT 9999 SCT040=
ESSV - Visby210650Z 08003KT 2500 SN BKN020 M05/M06 Q1025 RWY 21 ICE 51-100 PCT FCT 0.64= AAC 210710Z 2107/2115 07004KT 9999 -SN SCT015 BKN025 TEMPO 2107/2115 1500 BKN004=
ESGG - Göteborg210650Z VRB01KT 4000 -SN SCT005 OVC017 M03/M04 Q1025 RWY 21 DAMP 51-100 PCT BA GOOD= 210530Z 2106/2206 VRB02KT 9999 BKN040 TEMPO 2106/2109 2000 -SN BR BKN004=
FLEET STATUS
Flygplan Tid till service Tid till flygstopp Flygtid Landningar
Aircraft Time to service Time to stop Total time Landings
NOTAM
ESSL/LINKOPING/SAAB
+ (SNOWTAM 0081 A)ESSL B)02210430 C)11 F)1/1/1 G)1/1/1 H)5/5/5 N)1/5 R)1/5 T)SFH) REPORTED: 21 FEB 2018 04:30 + AERODROME CONTROL TOWER (TWR) HOURS OF OPS/SERVICE MON-FRI 0445-2200 SAT 0445-0545, 0945-1115, 1545-1645 SUN 0445-0545, 0945-1115, 1545-1800, 2100-2200 FROM: 19 FEB 2018 00:00 TO: 25 FEB 2018 23:59 ES/B0181/18 - CAUTION ADVICED DUE ERECTED CRANES AT POS 582332N0153724E 437 FT AMSL, HGT 197 FT AGL AND 582334N0153722E 407 FT AMSL, 171 FT AGL. LOCATED SW OF AERODROME. CRANES MARKED WITH RED LIGHT. FROM: 01 FEB 2018 14:06 TO: 05 MAY 2018 12:00 EST ES/B0269/18 - ATTENTION UNMANNED AIRCRAFT. ADDITION TO REGULATION TSFS 2017 110. THE LIMITATIONS IN REGULATION TSFS 2017 110 CHAPTER 3 PARAGRPH 3 APPLIES EVEN THOUGH THE AIRPORT IS CLOSED AND SAAB AND MALMEN CTR ARE NOT ESTABLISHED. FROM: 01 FEB 2018 16:02 TO: 27 APR 2018 10:00 EST ES/C0246/18 - CAUTION ADVICED DUE CRANE ERECTED DAILY 0600-1500 AT PSN 582405N0153720E LINKOPING HOSPITAL. ELEV 450 FT AMSL. CRANE LIGHTED F R. FROM: 19 JAN 2018 09:00 TO: 23 MAR 2018 15:00 EST ES/B0120/18
ESCF/LINKOPING/MALMEN
+ (SNOWTAM 0062 A)ESCF B)02210607 C)01 F)3/3/3 G)XX/XX/XX H)5/5/5 N)3/BA5 B)02210607 C)08 F)3/3/3 G)XX/XX/XX H)5/5/5 N)3/BA5 R)3/BA5 T)SFH DRY SNOW AND RIME) REPORTED: 21 FEB 2018 06:07 - ATTENTION UNMANNED AIRCRAFT. ADDITION TO REGULATION TSFS 2017 110. THE LIMITATIONS IN REGULATION TSFS 2017 110 CHAPTER 3 PARAGRPH 3 APPLIES EVEN THOUGH THE AIRPORT IS CLOSED AND SAAB AND MALMEN CTR ARE NOT ESTABLISHED. FROM: 01 FEB 2018 16:07 TO: 27 APR 2018 10:00 EST ES/C0248/18
PPR
Ankomst Avgång Flygplan Namn Bränsle
Arrival Departure Aircraft Name Fuel